sensor_id;sensor_type;location;lat;lon;timestamp;temperature;humidity
31975;DHT22;18500;43.618;1.474;2024-03-23T00:51:44;15.00;1.00
31975;DHT22;18500;43.618;1.474;2024-03-23T00:54:09;15.00;1.00
31975;DHT22;18500;43.618;1.474;2024-03-23T00:56:35;15.00;1.00
31975;DHT22;18500;43.618;1.474;2024-03-23T00:59:01;15.00;1.00
31975;DHT22;18500;43.618;1.474;2024-03-23T01:01:26;14.90;1.00
31975;DHT22;18500;43.618;1.474;2024-03-23T01:03:52;14.90;1.00
31975;DHT22;18500;43.618;1.474;2024-03-23T01:06:18;15.00;1.00
31975;DHT22;18500;43.618;1.474;2024-03-23T01:08:44;14.90;1.00
31975;DHT22;18500;43.618;1.474;2024-03-23T01:11:09;15.00;1.00
31975;DHT22;18500;43.618;1.474;2024-03-23T01:13:35;15.00;1.00
31975;DHT22;18500;43.618;1.474;2024-03-23T01:16:01;15.00;1.00
31975;DHT22;18500;43.618;1.474;2024-03-23T01:18:27;15.00;1.00
31975;DHT22;18500;43.618;1.474;2024-03-23T01:20:52;14.90;1.00
31975;DHT22;18500;43.618;1.474;2024-03-23T01:23:18;14.90;1.00
31975;DHT22;18500;43.618;1.474;2024-03-23T01:25:44;15.00;1.00
31975;DHT22;18500;43.618;1.474;2024-03-23T01:28:16;15.00;1.00
31975;DHT22;18500;43.618;1.474;2024-03-23T01:30:42;14.90;1.00
31975;DHT22;18500;43.618;1.474;2024-03-23T01:33:08;14.90;1.00
31975;DHT22;18500;43.618;1.474;2024-03-23T01:35:33;14.80;1.00
31975;DHT22;18500;43.618;1.474;2024-03-23T01:37:59;14.80;1.00
31975;DHT22;18500;43.618;1.474;2024-03-23T01:40:25;14.80;1.00
31975;DHT22;18500;43.618;1.474;2024-03-23T01:43:03;14.80;1.00
31975;DHT22;18500;43.618;1.474;2024-03-23T01:45:33;14.80;1.00
31975;DHT22;18500;43.618;1.474;2024-03-23T01:47:59;14.80;1.00
31975;DHT22;18500;43.618;1.474;2024-03-23T01:50:26;14.80;1.00
31975;DHT22;18500;43.618;1.474;2024-03-23T01:52:52;14.80;1.00
31975;DHT22;18500;43.618;1.474;2024-03-23T01:55:18;14.70;1.00
31975;DHT22;18500;43.618;1.474;2024-03-23T01:57:44;14.70;1.00
31975;DHT22;18500;43.618;1.474;2024-03-23T02:00:10;14.70;1.00
31975;DHT22;18500;43.618;1.474;2024-03-23T02:02:44;14.60;1.00
31975;DHT22;18500;43.618;1.474;2024-03-23T02:05:13;14.60;1.00
31975;DHT22;18500;43.618;1.474;2024-03-23T02:07:40;14.60;1.00
31975;DHT22;18500;43.618;1.474;2024-03-23T02:10:07;14.60;1.00
31975;DHT22;18500;43.618;1.474;2024-03-23T02:12:33;14.60;1.00
31975;DHT22;18500;43.618;1.474;2024-03-23T02:14:59;14.50;1.00
31975;DHT22;18500;43.618;1.474;2024-03-23T02:17:24;14.50;1.00
31975;DHT22;18500;43.618;1.474;2024-03-23T02:19:50;14.40;1.00
31975;DHT22;18500;43.618;1.474;2024-03-23T02:22:16;14.40;1.00
31975;DHT22;18500;43.618;1.474;2024-03-23T02:24:42;14.30;1.00
31975;DHT22;18500;43.618;1.474;2024-03-23T02:27:08;14.30;1.00
31975;DHT22;18500;43.618;1.474;2024-03-23T02:29:34;13.90;1.00
31975;DHT22;18500;43.618;1.474;2024-03-23T02:31:59;13.80;1.00
31975;DHT22;18500;43.618;1.474;2024-03-23T02:34:25;13.90;1.00
31975;DHT22;18500;43.618;1.474;2024-03-23T02:36:51;13.90;1.00
31975;DHT22;18500;43.618;1.474;2024-03-23T02:39:16;13.90;1.00
31975;DHT22;18500;43.618;1.474;2024-03-23T02:41:42;14.00;1.00
31975;DHT22;18500;43.618;1.474;2024-03-23T02:44:08;13.90;1.00
31975;DHT22;18500;43.618;1.474;2024-03-23T02:46:37;13.80;1.00
31975;DHT22;18500;43.618;1.474;2024-03-23T02:49:03;13.70;1.00
31975;DHT22;18500;43.618;1.474;2024-03-23T02:51:30;13.70;1.00
31975;DHT22;18500;43.618;1.474;2024-03-23T02:53:55;13.60;1.00
31975;DHT22;18500;43.618;1.474;2024-03-23T02:56:21;13.50;1.00
31975;DHT22;18500;43.618;1.474;2024-03-23T02:58:47;13.50;1.00
31975;DHT22;18500;43.618;1.474;2024-03-23T03:01:13;13.40;1.00
31975;DHT22;18500;43.618;1.474;2024-03-23T03:03:38;13.30;1.00
31975;DHT22;18500;43.618;1.474;2024-03-23T03:06:04;13.40;1.00
31975;DHT22;18500;43.618;1.474;2024-03-23T03:08:30;13.30;1.00
31975;DHT22;18500;43.618;1.474;2024-03-23T03:10:55;13.20;1.00
31975;DHT22;18500;43.618;1.474;2024-03-23T03:13:21;13.10;1.00
31975;DHT22;18500;43.618;1.474;2024-03-23T03:15:47;13.20;1.00
31975;DHT22;18500;43.618;1.474;2024-03-23T03:18:13;13.10;1.00
31975;DHT22;18500;43.618;1.474;2024-03-23T03:20:39;13.10;1.00
31975;DHT22;18500;43.618;1.474;2024-03-23T03:23:06;13.00;1.00
31975;DHT22;18500;43.618;1.474;2024-03-23T03:25:32;12.90;1.00
31975;DHT22;18500;43.618;1.474;2024-03-23T03:27:57;13.00;1.00
31975;DHT22;18500;43.618;1.474;2024-03-23T03:30:23;13.00;1.00
31975;DHT22;18500;43.618;1.474;2024-03-23T03:32:49;12.90;1.00
31975;DHT22;18500;43.618;1.474;2024-03-23T03:35:15;12.80;1.00
31975;DHT22;18500;43.618;1.474;2024-03-23T03:37:41;12.80;1.00
31975;DHT22;18500;43.618;1.474;2024-03-23T03:40:07;12.70;1.00
31975;DHT22;18500;43.618;1.474;2024-03-23T03:42:34;12.60;1.00
31975;DHT22;18500;43.618;1.474;2024-03-23T03:45:00;12.60;1.00
31975;DHT22;18500;43.618;1.474;2024-03-23T03:47:26;12.50;1.00
31975;DHT22;18500;43.618;1.474;2024-03-23T03:49:51;12.40;1.00
31975;DHT22;18500;43.618;1.474;2024-03-23T03:52:17;12.40;1.00
31975;DHT22;18500;43.618;1.474;2024-03-23T03:54:43;12.50;1.00
31975;DHT22;18500;43.618;1.474;2024-03-23T03:57:08;12.50;1.00
31975;DHT22;18500;43.618;1.474;2024-03-23T03:59:34;12.50;1.00
31975;DHT22;18500;43.618;1.474;2024-03-23T04:01:59;12.50;1.00
31975;DHT22;18500;43.618;1.474;2024-03-23T04:04:25;12.50;1.00
31975;DHT22;18500;43.618;1.474;2024-03-23T04:07:01;12.40;1.00
31975;DHT22;18500;43.618;1.474;2024-03-23T04:09:27;12.40;1.00
31975;DHT22;18500;43.618;1.474;2024-03-23T04:11:53;12.40;1.00
31975;DHT22;18500;43.618;1.474;2024-03-23T04:14:19;12.40;1.00
31975;DHT22;18500;43.618;1.474;2024-03-23T04:16:44;12.40;1.00
31975;DHT22;18500;43.618;1.474;2024-03-23T04:19:10;12.40;1.00
31975;DHT22;18500;43.618;1.474;2024-03-23T04:21:37;12.40;1.00
31975;DHT22;18500;43.618;1.474;2024-03-23T04:24:04;12.30;1.00
31975;DHT22;18500;43.618;1.474;2024-03-23T04:26:29;12.30;1.00
31975;DHT22;18500;43.618;1.474;2024-03-23T04:28:55;12.20;1.00
31975;DHT22;18500;43.618;1.474;2024-03-23T04:31:21;12.20;1.00
31975;DHT22;18500;43.618;1.474;2024-03-23T04:33:47;12.10;1.00
31975;DHT22;18500;43.618;1.474;2024-03-23T04:36:13;12.10;1.00
31975;DHT22;18500;43.618;1.474;2024-03-23T04:38:38;12.10;1.00
31975;DHT22;18500;43.618;1.474;2024-03-23T04:41:04;12.10;1.00
31975;DHT22;18500;43.618;1.474;2024-03-23T04:43:30;12.10;1.00
31975;DHT22;18500;43.618;1.474;2024-03-23T04:45:55;12.10;1.00
31975;DHT22;18500;43.618;1.474;2024-03-23T04:48:22;12.10;1.00
31975;DHT22;18500;43.618;1.474;2024-03-23T04:50:54;12.10;1.00
31975;DHT22;18500;43.618;1.474;2024-03-23T04:53:20;12.10;1.00
31975;DHT22;18500;43.618;1.474;2024-03-23T04:55:45;12.20;1.00
31975;DHT22;18500;43.618;1.474;2024-03-23T04:58:11;12.20;1.00
31975;DHT22;18500;43.618;1.474;2024-03-23T05:00:37;12.20;1.00
31975;DHT22;18500;43.618;1.474;2024-03-23T05:03:02;12.20;1.00
31975;DHT22;18500;43.618;1.474;2024-03-23T05:05:29;12.20;1.00
31975;DHT22;18500;43.618;1.474;2024-03-23T05:07:55;12.20;1.00
31975;DHT22;18500;43.618;1.474;2024-03-23T05:10:21;12.20;1.00
31975;DHT22;18500;43.618;1.474;2024-03-23T05:12:46;12.20;1.00
31975;DHT22;18500;43.618;1.474;2024-03-23T05:15:12;12.20;1.00
31975;DHT22;18500;43.618;1.474;2024-03-23T05:17:38;12.20;1.00
31975;DHT22;18500;43.618;1.474;2024-03-23T05:20:04;12.20;1.00
31975;DHT22;18500;43.618;1.474;2024-03-23T05:22:30;12.20;1.00
31975;DHT22;18500;43.618;1.474;2024-03-23T05:24:56;12.20;1.00
31975;DHT22;18500;43.618;1.474;2024-03-23T05:27:22;12.10;1.00
31975;DHT22;18500;43.618;1.474;2024-03-23T05:29:48;12.10;1.00
31975;DHT22;18500;43.618;1.474;2024-03-23T05:32:14;12.20;1.00
31975;DHT22;18500;43.618;1.474;2024-03-23T05:34:39;12.10;1.00
31975;DHT22;18500;43.618;1.474;2024-03-23T05:37:05;12.10;1.00
31975;DHT22;18500;43.618;1.474;2024-03-23T05:39:31;12.10;1.00
31975;DHT22;18500;43.618;1.474;2024-03-23T05:41:56;12.10;1.00
31975;DHT22;18500;43.618;1.474;2024-03-23T05:44:22;12.20;1.00
31975;DHT22;18500;43.618;1.474;2024-03-23T05:46:48;12.10;1.00
31975;DHT22;18500;43.618;1.474;2024-03-23T05:49:15;12.10;1.00
31975;DHT22;18500;43.618;1.474;2024-03-23T05:51:41;12.00;1.00
31975;DHT22;18500;43.618;1.474;2024-03-23T05:54:06;11.90;1.00
31975;DHT22;18500;43.618;1.474;2024-03-23T05:56:32;11.60;1.00
31975;DHT22;18500;43.618;1.474;2024-03-23T05:58:58;11.80;1.00
31975;DHT22;18500;43.618;1.474;2024-03-23T06:01:23;11.70;1.00
31975;DHT22;18500;43.618;1.474;2024-03-23T06:03:49;11.80;1.00
31975;DHT22;18500;43.618;1.474;2024-03-23T06:06:14;11.80;1.00
31975;DHT22;18500;43.618;1.474;2024-03-23T06:08:40;11.90;1.00
31975;DHT22;18500;43.618;1.474;2024-03-23T06:11:06;11.90;1.00
31975;DHT22;18500;43.618;1.474;2024-03-23T06:13:32;12.00;1.00
31975;DHT22;18500;43.618;1.474;2024-03-23T06:15:59;12.00;1.00
31975;DHT22;18500;43.618;1.474;2024-03-23T06:18:25;12.00;1.00
31975;DHT22;18500;43.618;1.474;2024-03-23T06:20:50;12.00;1.00
31975;DHT22;18500;43.618;1.474;2024-03-23T06:23:16;12.00;1.00
31975;DHT22;18500;43.618;1.474;2024-03-23T06:25:42;12.00;1.00
31975;DHT22;18500;43.618;1.474;2024-03-23T06:28:08;12.00;1.00
31975;DHT22;18500;43.618;1.474;2024-03-23T06:30:34;12.00;1.00
31975;DHT22;18500;43.618;1.474;2024-03-23T06:32:59;11.90;1.00
31975;DHT22;18500;43.618;1.474;2024-03-23T06:35:25;11.90;1.00
31975;DHT22;18500;43.618;1.474;2024-03-23T06:37:51;12.00;1.00
31975;DHT22;18500;43.618;1.474;2024-03-23T06:40:16;11.90;1.00
31975;DHT22;18500;43.618;1.474;2024-03-23T06:42:42;11.50;29.10
31975;DHT22;18500;43.618;1.474;2024-03-23T06:45:08;11.50;84.60
31975;DHT22;18500;43.618;1.474;2024-03-23T06:47:34;10.90;99.90
31975;DHT22;18500;43.618;1.474;2024-03-23T06:50:00;11.00;1.00
31975;DHT22;18500;43.618;1.474;2024-03-23T06:52:29;11.00;1.00
31975;DHT22;18500;43.618;1.474;2024-03-23T06:54:54;11.10;1.00
31975;DHT22;18500;43.618;1.474;2024-03-23T06:57:20;10.90;65.70
31975;DHT22;18500;43.618;1.474;2024-03-23T06:59:46;10.90;99.90
31975;DHT22;18500;43.618;1.474;2024-03-23T07:02:12;11.00;57.70
31975;DHT22;18500;43.618;1.474;2024-03-23T07:04:37;10.90;1.00
31975;DHT22;18500;43.618;1.474;2024-03-23T07:07:05;11.00;1.00
31975;DHT22;18500;43.618;1.474;2024-03-23T07:09:31;10.90;99.90
31975;DHT22;18500;43.618;1.474;2024-03-23T07:11:57;10.80;1.00
31975;DHT22;18500;43.618;1.474;2024-03-23T07:14:23;10.80;1.00
31975;DHT22;18500;43.618;1.474;2024-03-23T07:16:49;10.80;99.90
31975;DHT22;18500;43.618;1.474;2024-03-23T07:19:16;10.80;1.00
31975;DHT22;18500;43.618;1.474;2024-03-23T07:21:45;10.80;99.90
31975;DHT22;18500;43.618;1.474;2024-03-23T07:24:11;10.90;99.90
31975;DHT22;18500;43.618;1.474;2024-03-23T07:26:37;10.90;99.90
31975;DHT22;18500;43.618;1.474;2024-03-23T07:29:06;10.80;99.90
31975;DHT22;18500;43.618;1.474;2024-03-23T07:31:32;10.80;99.90
31975;DHT22;18500;43.618;1.474;2024-03-23T07:33:58;10.70;99.90
31975;DHT22;18500;43.618;1.474;2024-03-23T07:36:23;10.70;99.90
31975;DHT22;18500;43.618;1.474;2024-03-23T07:38:50;10.70;99.90
31975;DHT22;18500;43.618;1.474;2024-03-23T07:41:17;10.60;31.20
31975;DHT22;18500;43.618;1.474;2024-03-23T07:43:43;10.60;1.00
31975;DHT22;18500;43.618;1.474;2024-03-23T07:46:09;10.60;1.00
31975;DHT22;18500;43.618;1.474;2024-03-23T07:48:35;10.60;1.00
31975;DHT22;18500;43.618;1.474;2024-03-23T07:51:08;10.60;1.00
31975;DHT22;18500;43.618;1.474;2024-03-23T07:53:35;10.50;1.00
31975;DHT22;18500;43.618;1.474;2024-03-23T07:56:08;10.70;99.90
31975;DHT22;18500;43.618;1.474;2024-03-23T07:58:35;10.60;99.90
31975;DHT22;18500;43.618;1.474;2024-03-23T08:01:06;10.60;99.90
31975;DHT22;18500;43.618;1.474;2024-03-23T08:03:36;10.40;1.00
31975;DHT22;18500;43.618;1.474;2024-03-23T08:06:22;10.40;99.90
31975;DHT22;18500;43.618;1.474;2024-03-23T08:08:51;10.20;99.90
31975;DHT22;18500;43.618;1.474;2024-03-23T08:11:28;9.90;26.80
31975;DHT22;18500;43.618;1.474;2024-03-23T08:13:54;9.80;1.00
31975;DHT22;18500;43.618;1.474;2024-03-23T08:16:20;9.50;1.00
31975;DHT22;18500;43.618;1.474;2024-03-23T08:18:45;9.40;99.90
31975;DHT22;18500;43.618;1.474;2024-03-23T08:21:11;9.20;1.00
31975;DHT22;18500;43.618;1.474;2024-03-23T08:23:37;9.20;97.20
31975;DHT22;18500;43.618;1.474;2024-03-23T08:26:15;9.10;1.00
31975;DHT22;18500;43.618;1.474;2024-03-23T08:28:41;9.20;46.10
31975;DHT22;18500;43.618;1.474;2024-03-23T08:31:08;9.50;99.90
31975;DHT22;18500;43.618;1.474;2024-03-23T08:33:34;9.40;99.90
31975;DHT22;18500;43.618;1.474;2024-03-23T08:36:07;9.30;1.00
31975;DHT22;18500;43.618;1.474;2024-03-23T08:38:33;9.50;99.90
31975;DHT22;18500;43.618;1.474;2024-03-23T08:41:09;9.50;98.70
31975;DHT22;18500;43.618;1.474;2024-03-23T08:43:37;9.70;99.90
31975;DHT22;18500;43.618;1.474;2024-03-23T08:46:04;9.60;1.00
31975;DHT22;18500;43.618;1.474;2024-03-23T08:48:31;9.60;99.90
31975;DHT22;18500;43.618;1.474;2024-03-23T08:51:01;9.40;99.90
31975;DHT22;18500;43.618;1.474;2024-03-23T08:53:28;9.40;1.00
31975;DHT22;18500;43.618;1.474;2024-03-23T08:55:55;9.60;99.90
31975;DHT22;18500;43.618;1.474;2024-03-23T08:58:23;9.50;79.70
31975;DHT22;18500;43.618;1.474;2024-03-23T09:00:50;9.40;16.90
31975;DHT22;18500;43.618;1.474;2024-03-23T09:03:16;9.70;6.00
31975;DHT22;18500;43.618;1.474;2024-03-23T09:05:41;10.10;1.00
31975;DHT22;18500;43.618;1.474;2024-03-23T09:08:07;10.50;1.00
31975;DHT22;18500;43.618;1.474;2024-03-23T09:10:39;10.80;1.00
31975;DHT22;18500;43.618;1.474;2024-03-23T09:13:05;11.00;1.00
31975;DHT22;18500;43.618;1.474;2024-03-23T09:15:35;11.00;1.00
31975;DHT22;18500;43.618;1.474;2024-03-23T09:18:01;10.90;1.00
31975;DHT22;18500;43.618;1.474;2024-03-23T09:20:27;11.00;1.00
31975;DHT22;18500;43.618;1.474;2024-03-23T09:22:52;11.10;1.00
31975;DHT22;18500;43.618;1.474;2024-03-23T09:25:18;11.30;1.00
31975;DHT22;18500;43.618;1.474;2024-03-23T09:27:46;11.30;1.00
31975;DHT22;18500;43.618;1.474;2024-03-23T09:30:12;11.10;1.00
31975;DHT22;18500;43.618;1.474;2024-03-23T09:32:38;11.30;1.00
31975;DHT22;18500;43.618;1.474;2024-03-23T09:35:04;11.40;1.00
31975;DHT22;18500;43.618;1.474;2024-03-23T09:37:30;11.40;1.00
31975;DHT22;18500;43.618;1.474;2024-03-23T09:39:56;10.90;1.00
31975;DHT22;18500;43.618;1.474;2024-03-23T09:42:21;10.70;1.00
31975;DHT22;18500;43.618;1.474;2024-03-23T09:44:49;10.60;1.00
31975;DHT22;18500;43.618;1.474;2024-03-23T09:47:16;10.60;1.00
31975;DHT22;18500;43.618;1.474;2024-03-23T09:49:43;10.90;1.00
31975;DHT22;18500;43.618;1.474;2024-03-23T09:52:08;10.80;1.00
31975;DHT22;18500;43.618;1.474;2024-03-23T09:54:35;10.70;1.00
31975;DHT22;18500;43.618;1.474;2024-03-23T09:57:01;10.90;1.00
31975;DHT22;18500;43.618;1.474;2024-03-23T09:59:26;11.30;1.00
31975;DHT22;18500;43.618;1.474;2024-03-23T10:01:53;11.40;1.00
31975;DHT22;18500;43.618;1.474;2024-03-23T10:07:14;11.50;1.00
31975;DHT22;18500;43.618;1.474;2024-03-23T10:09:40;11.60;1.00
31975;DHT22;18500;43.618;1.474;2024-03-23T10:12:13;11.70;1.00
31975;DHT22;18500;43.618;1.474;2024-03-23T10:14:42;11.80;1.00
31975;DHT22;18500;43.618;1.474;2024-03-23T10:17:14;11.70;1.00
31975;DHT22;18500;43.618;1.474;2024-03-23T10:19:46;11.80;1.00
31975;DHT22;18500;43.618;1.474;2024-03-23T10:22:14;12.10;1.00
31975;DHT22;18500;43.618;1.474;2024-03-23T10:24:41;11.90;1.00
31975;DHT22;18500;43.618;1.474;2024-03-23T10:27:07;11.90;1.00
31975;DHT22;18500;43.618;1.474;2024-03-23T10:29:33;12.20;1.00
31975;DHT22;18500;43.618;1.474;2024-03-23T10:32:08;12.20;1.00
31975;DHT22;18500;43.618;1.474;2024-03-23T10:34:35;12.20;1.00
31975;DHT22;18500;43.618;1.474;2024-03-23T10:37:02;12.30;1.00
31975;DHT22;18500;43.618;1.474;2024-03-23T10:39:32;12.40;1.00
31975;DHT22;18500;43.618;1.474;2024-03-23T10:42:04;12.60;1.00
31975;DHT22;18500;43.618;1.474;2024-03-23T10:44:31;12.80;1.00
31975;DHT22;18500;43.618;1.474;2024-03-23T10:47:01;12.60;1.00
31975;DHT22;18500;43.618;1.474;2024-03-23T10:52:05;12.30;1.00
31975;DHT22;18500;43.618;1.474;2024-03-23T10:54:32;12.10;1.00
31975;DHT22;18500;43.618;1.474;2024-03-23T10:57:10;12.10;1.00
31975;DHT22;18500;43.618;1.474;2024-03-23T10:59:38;12.40;1.00
31975;DHT22;18500;43.618;1.474;2024-03-23T11:02:05;12.80;1.00
31975;DHT22;18500;43.618;1.474;2024-03-23T11:04:37;12.90;1.00
31975;DHT22;18500;43.618;1.474;2024-03-23T11:09:52;13.30;1.00
31975;DHT22;18500;43.618;1.474;2024-03-23T11:14:47;12.80;1.00
31975;DHT22;18500;43.618;1.474;2024-03-23T11:17:19;12.70;1.00
31975;DHT22;18500;43.618;1.474;2024-03-23T11:19:46;12.60;1.00
31975;DHT22;18500;43.618;1.474;2024-03-23T11:25:25;13.30;1.00
31975;DHT22;18500;43.618;1.474;2024-03-23T11:27:58;13.30;1.00
31975;DHT22;18500;43.618;1.474;2024-03-23T11:30:25;13.40;1.00
31975;DHT22;18500;43.618;1.474;2024-03-23T11:32:53;13.30;1.00
31975;DHT22;18500;43.618;1.474;2024-03-23T11:35:29;13.40;1.00
31975;DHT22;18500;43.618;1.474;2024-03-23T11:38:11;13.50;1.00
31975;DHT22;18500;43.618;1.474;2024-03-23T11:40:45;13.40;1.00
31975;DHT22;18500;43.618;1.474;2024-03-23T11:43:13;13.10;1.00
31975;DHT22;18500;43.618;1.474;2024-03-23T11:45:46;13.10;1.00
31975;DHT22;18500;43.618;1.474;2024-03-23T11:48:17;13.60;1.00
31975;DHT22;18500;43.618;1.474;2024-03-23T11:50:53;13.80;1.00
31975;DHT22;18500;43.618;1.474;2024-03-23T11:53:23;13.90;1.00
31975;DHT22;18500;43.618;1.474;2024-03-23T11:55:59;14.20;1.00
31975;DHT22;18500;43.618;1.474;2024-03-23T11:58:28;14.30;1.00
31975;DHT22;18500;43.618;1.474;2024-03-23T12:01:02;14.20;1.00
31975;DHT22;18500;43.618;1.474;2024-03-23T12:03:29;14.20;1.00
31975;DHT22;18500;43.618;1.474;2024-03-23T12:05:57;14.40;1.00
31975;DHT22;18500;43.618;1.474;2024-03-23T12:08:30;14.60;1.00
31975;DHT22;18500;43.618;1.474;2024-03-23T12:11:06;14.30;1.00
31975;DHT22;18500;43.618;1.474;2024-03-23T12:13:33;14.30;1.00
31975;DHT22;18500;43.618;1.474;2024-03-23T12:16:17;14.10;1.00
31975;DHT22;18500;43.618;1.474;2024-03-23T12:18:44;14.10;1.00
31975;DHT22;18500;43.618;1.474;2024-03-23T12:21:10;13.80;1.00
31975;DHT22;18500;43.618;1.474;2024-03-23T12:23:39;13.80;1.00
31975;DHT22;18500;43.618;1.474;2024-03-23T12:26:04;14.10;1.00
31975;DHT22;18500;43.618;1.474;2024-03-23T12:28:30;14.10;1.00
31975;DHT22;18500;43.618;1.474;2024-03-23T12:30:56;14.40;1.00
31975;DHT22;18500;43.618;1.474;2024-03-23T12:33:22;14.70;1.00
31975;DHT22;18500;43.618;1.474;2024-03-23T12:35:48;15.80;1.00
31975;DHT22;18500;43.618;1.474;2024-03-23T12:38:14;18.90;1.00
31975;DHT22;18500;43.618;1.474;2024-03-23T12:40:39;19.30;1.00
31975;DHT22;18500;43.618;1.474;2024-03-23T12:43:06;19.40;1.00
31975;DHT22;18500;43.618;1.474;2024-03-23T12:45:33;19.90;1.00
31975;DHT22;18500;43.618;1.474;2024-03-23T12:47:58;20.70;1.00
31975;DHT22;18500;43.618;1.474;2024-03-23T12:50:24;21.90;1.00
31975;DHT22;18500;43.618;1.474;2024-03-23T12:52:50;22.00;1.00
31975;DHT22;18500;43.618;1.474;2024-03-23T12:55:16;20.70;1.00
31975;DHT22;18500;43.618;1.474;2024-03-23T12:57:42;21.60;1.00
31975;DHT22;18500;43.618;1.474;2024-03-23T13:00:08;22.50;1.00
31975;DHT22;18500;43.618;1.474;2024-03-23T13:02:37;22.40;1.00
31975;DHT22;18500;43.618;1.474;2024-03-23T13:05:04;22.50;1.00
31975;DHT22;18500;43.618;1.474;2024-03-23T13:07:30;23.10;1.00
31975;DHT22;18500;43.618;1.474;2024-03-23T13:09:56;22.80;1.00
31975;DHT22;18500;43.618;1.474;2024-03-23T13:12:25;22.40;1.00
31975;DHT22;18500;43.618;1.474;2024-03-23T13:14:51;23.10;1.00
31975;DHT22;18500;43.618;1.474;2024-03-23T13:17:16;23.40;1.00
31975;DHT22;18500;43.618;1.474;2024-03-23T13:19:42;24.40;1.00
31975;DHT22;18500;43.618;1.474;2024-03-23T13:22:07;24.00;1.00
31975;DHT22;18500;43.618;1.474;2024-03-23T13:24:36;24.60;1.00
31975;DHT22;18500;43.618;1.474;2024-03-23T13:27:02;22.00;1.00
31975;DHT22;18500;43.618;1.474;2024-03-23T13:29:27;23.50;1.00
31975;DHT22;18500;43.618;1.474;2024-03-23T13:31:53;23.80;1.00
31975;DHT22;18500;43.618;1.474;2024-03-23T13:34:19;21.70;1.00
31975;DHT22;18500;43.618;1.474;2024-03-23T13:36:46;23.00;1.00
31975;DHT22;18500;43.618;1.474;2024-03-23T13:39:12;24.10;1.00
31975;DHT22;18500;43.618;1.474;2024-03-23T13:41:39;23.90;1.00
31975;DHT22;18500;43.618;1.474;2024-03-23T13:44:08;24.20;1.00
31975;DHT22;18500;43.618;1.474;2024-03-23T13:46:38;24.60;1.00
31975;DHT22;18500;43.618;1.474;2024-03-23T13:49:05;26.10;1.00
31975;DHT22;18500;43.618;1.474;2024-03-23T13:51:30;25.00;1.00
31975;DHT22;18500;43.618;1.474;2024-03-23T13:53:56;23.60;1.00
31975;DHT22;18500;43.618;1.474;2024-03-23T13:56:25;24.10;1.00
31975;DHT22;18500;43.618;1.474;2024-03-23T13:58:51;24.40;1.00
31975;DHT22;18500;43.618;1.474;2024-03-23T14:01:17;25.40;1.00
31975;DHT22;18500;43.618;1.474;2024-03-23T14:03:43;26.70;1.00
31975;DHT22;18500;43.618;1.474;2024-03-23T14:06:10;26.40;1.00
31975;DHT22;18500;43.618;1.474;2024-03-23T14:08:37;24.10;1.00
31975;DHT22;18500;43.618;1.474;2024-03-23T14:11:05;23.40;1.00
31975;DHT22;18500;43.618;1.474;2024-03-23T14:13:31;20.60;1.00
31975;DHT22;18500;43.618;1.474;2024-03-23T14:15:58;19.90;1.00
31975;DHT22;18500;43.618;1.474;2024-03-23T14:18:24;19.50;1.00
31975;DHT22;18500;43.618;1.474;2024-03-23T14:20:51;21.00;1.00
31975;DHT22;18500;43.618;1.474;2024-03-23T14:23:17;22.80;1.00
31975;DHT22;18500;43.618;1.474;2024-03-23T14:25:43;21.40;1.00
31975;DHT22;18500;43.618;1.474;2024-03-23T14:28:08;20.40;1.00
31975;DHT22;18500;43.618;1.474;2024-03-23T14:30:41;18.30;1.00
31975;DHT22;18500;43.618;1.474;2024-03-23T14:33:07;17.30;1.00
31975;DHT22;18500;43.618;1.474;2024-03-23T14:35:33;17.00;1.00
31975;DHT22;18500;43.618;1.474;2024-03-23T14:37:59;17.20;1.00
31975;DHT22;18500;43.618;1.474;2024-03-23T14:40:24;17.10;1.00
31975;DHT22;18500;43.618;1.474;2024-03-23T14:42:56;17.30;1.00
31975;DHT22;18500;43.618;1.474;2024-03-23T14:45:22;16.80;1.00
31975;DHT22;18500;43.618;1.474;2024-03-23T14:47:50;16.30;1.00
31975;DHT22;18500;43.618;1.474;2024-03-23T14:50:16;16.60;1.00
31975;DHT22;18500;43.618;1.474;2024-03-23T14:52:45;16.90;1.00
31975;DHT22;18500;43.618;1.474;2024-03-23T14:55:12;16.30;1.00
31975;DHT22;18500;43.618;1.474;2024-03-23T14:57:38;16.10;1.00
31975;DHT22;18500;43.618;1.474;2024-03-23T15:00:09;15.70;1.00
31975;DHT22;18500;43.618;1.474;2024-03-23T15:02:39;15.80;1.00
31975;DHT22;18500;43.618;1.474;2024-03-23T15:05:07;16.00;1.00
31975;DHT22;18500;43.618;1.474;2024-03-23T15:07:36;15.80;1.00
31975;DHT22;18500;43.618;1.474;2024-03-23T15:10:05;15.60;1.00
31975;DHT22;18500;43.618;1.474;2024-03-23T15:12:31;15.60;1.00
31975;DHT22;18500;43.618;1.474;2024-03-23T15:15:00;15.70;1.00
31975;DHT22;18500;43.618;1.474;2024-03-23T15:17:26;15.50;1.00
31975;DHT22;18500;43.618;1.474;2024-03-23T15:19:52;15.60;1.00
31975;DHT22;18500;43.618;1.474;2024-03-23T15:22:19;15.80;1.00
31975;DHT22;18500;43.618;1.474;2024-03-23T15:24:45;16.20;1.00
31975;DHT22;18500;43.618;1.474;2024-03-23T15:27:11;16.10;1.00
31975;DHT22;18500;43.618;1.474;2024-03-23T15:29:37;16.20;1.00
31975;DHT22;18500;43.618;1.474;2024-03-23T15:32:03;15.80;1.00
31975;DHT22;18500;43.618;1.474;2024-03-23T15:34:29;15.80;1.00
31975;DHT22;18500;43.618;1.474;2024-03-23T15:36:55;15.80;1.00
31975;DHT22;18500;43.618;1.474;2024-03-23T15:39:21;15.70;1.00
31975;DHT22;18500;43.618;1.474;2024-03-23T15:41:49;15.90;1.00
31975;DHT22;18500;43.618;1.474;2024-03-23T15:44:15;15.90;1.00
31975;DHT22;18500;43.618;1.474;2024-03-23T15:46:41;15.90;1.00
31975;DHT22;18500;43.618;1.474;2024-03-23T15:49:06;15.90;1.00
31975;DHT22;18500;43.618;1.474;2024-03-23T15:51:32;15.80;1.00
31975;DHT22;18500;43.618;1.474;2024-03-23T15:54:00;15.40;1.00
31975;DHT22;18500;43.618;1.474;2024-03-23T15:56:26;15.40;1.00
31975;DHT22;18500;43.618;1.474;2024-03-23T15:58:52;15.70;1.00
31975;DHT22;18500;43.618;1.474;2024-03-23T16:01:18;15.60;1.00
31975;DHT22;18500;43.618;1.474;2024-03-23T16:03:43;15.50;1.00
31975;DHT22;18500;43.618;1.474;2024-03-23T16:06:09;15.40;1.00
31975;DHT22;18500;43.618;1.474;2024-03-23T16:08:35;15.00;1.00
31975;DHT22;18500;43.618;1.474;2024-03-23T16:11:02;15.00;1.00
31975;DHT22;18500;43.618;1.474;2024-03-23T16:13:29;14.90;1.00
31975;DHT22;18500;43.618;1.474;2024-03-23T16:15:58;14.90;1.00
31975;DHT22;18500;43.618;1.474;2024-03-23T16:18:25;14.90;1.00
31975;DHT22;18500;43.618;1.474;2024-03-23T16:20:55;14.80;1.00
31975;DHT22;18500;43.618;1.474;2024-03-23T16:23:21;14.80;1.00
31975;DHT22;18500;43.618;1.474;2024-03-23T16:25:51;14.90;1.00
31975;DHT22;18500;43.618;1.474;2024-03-23T16:28:24;14.90;1.00
31975;DHT22;18500;43.618;1.474;2024-03-23T16:30:54;14.70;1.00
31975;DHT22;18500;43.618;1.474;2024-03-23T16:33:23;14.60;1.00
31975;DHT22;18500;43.618;1.474;2024-03-23T16:38:26;14.70;1.00
31975;DHT22;18500;43.618;1.474;2024-03-23T16:40:59;14.80;1.00
31975;DHT22;18500;43.618;1.474;2024-03-23T16:43:26;15.00;1.00
31975;DHT22;18500;43.618;1.474;2024-03-23T16:46:03;15.00;1.00
31975;DHT22;18500;43.618;1.474;2024-03-23T16:48:30;15.00;1.00
31975;DHT22;18500;43.618;1.474;2024-03-23T16:51:00;15.10;1.00